Time;durP1;ratioP1;P1;durP2;ratioP2;P2;SDS_P1;SDS_P2;PMS_P1;PMS_P2;Temp;Humidity;BMP_temperature;BMP_pressure;BME280_temperature;BME280_humidity;BME280_pressure;Samples;Min_cycle;Max_cycle;Signal;HPM_P1;HPM_P2
2021/06/25 00:00:44;;;;;;;2.60;2.50;;;24.20;57.90;;;;;;4988292;28;20500;-32
2021/06/25 00:03:10;;;;;;;2.67;2.47;;;24.20;57.90;;;;;;4988135;28;20058;-35
2021/06/25 00:05:35;;;;;;;2.88;2.72;;;24.20;58.00;;;;;;4989336;28;20042;-36
2021/06/25 00:08:01;;;;;;;2.83;2.63;;;24.20;58.00;;;;;;4991090;28;20053;-32
2021/06/25 00:10:26;;;;;;;3.10;2.90;;;24.20;58.10;;;;;;4991215;28;20035;-37
2021/06/25 00:12:52;;;;;;;2.92;2.72;;;24.20;58.00;;;;;;4988260;28;20022;-35
2021/06/25 00:15:18;;;;;;;2.85;2.70;;;24.20;58.00;;;;;;5002836;28;20122;-34
2021/06/25 00:17:43;;;;;;;2.58;2.38;;;24.20;58.00;;;;;;4989324;28;20156;-31
2021/06/25 00:20:12;;;;;;;2.92;2.60;;;24.10;58.10;;;;;;4989427;28;20030;-34
2021/06/25 00:22:37;;;;;;;2.50;2.40;;;24.10;58.10;;;;;;4990346;28;20037;-31
2021/06/25 00:25:03;;;;;;;2.70;2.45;;;24.10;58.10;;;;;;4989244;28;20417;-31
2021/06/25 00:27:29;;;;;;;2.97;2.78;;;24.10;58.10;;;;;;4971867;28;20088;-36
2021/06/25 00:29:55;;;;;;;2.70;2.60;;;24.00;58.10;;;;;;4989572;28;20018;-37
2021/06/25 00:32:20;;;;;;;2.40;2.30;;;24.00;58.10;;;;;;4989123;28;20031;-34
2021/06/25 00:34:46;;;;;;;2.97;2.88;;;24.00;58.20;;;;;;4991417;28;20444;-33
2021/06/25 00:37:11;;;;;;;2.60;2.40;;;24.00;58.20;;;;;;4987942;28;20030;-34
2021/06/25 00:39:37;;;;;;;2.65;2.55;;;24.00;58.20;;;;;;4987338;28;20018;-37
2021/06/25 00:42:04;;;;;;;3.00;2.80;;;24.00;58.30;;;;;;4989583;28;20058;-36
2021/06/25 00:44:29;;;;;;;2.58;2.38;;;24.00;58.30;;;;;;4987830;28;20515;-37
2021/06/25 00:46:55;;;;;;;2.70;2.60;;;24.00;58.40;;;;;;4992138;28;20035;-36
2021/06/25 00:49:20;;;;;;;2.25;2.15;;;23.90;58.40;;;;;;4988556;28;20030;-36
2021/06/25 00:51:46;;;;;;;2.50;2.30;;;23.90;58.50;;;;;;4990401;28;20046;-36
2021/06/25 00:54:12;;;;;;;2.65;2.47;;;23.90;58.40;;;;;;4988145;28;20194;-33
2021/06/25 00:56:38;;;;;;;2.50;2.30;;;23.90;58.40;;;;;;4989379;28;20030;-38
2021/06/25 00:59:04;;;;;;;2.58;2.47;;;24.00;58.40;;;;;;4990483;28;20073;-35
2021/06/25 01:01:30;;;;;;;2.22;2.13;;;23.90;58.60;;;;;;4992296;28;20034;-36
2021/06/25 01:03:55;;;;;;;2.70;2.55;;;23.90;58.70;;;;;;4991577;28;20125;-35
2021/06/25 01:06:21;;;;;;;2.55;2.45;;;23.90;58.60;;;;;;5007612;28;20503;-35
2021/06/25 01:08:47;;;;;;;2.60;2.40;;;23.90;58.70;;;;;;5006937;28;20026;-35
2021/06/25 01:11:13;;;;;;;2.40;2.30;;;23.90;58.60;;;;;;4993558;28;20390;-33
2021/06/25 01:13:38;;;;;;;2.50;2.40;;;23.90;58.60;;;;;;4992992;28;20018;-34
2021/06/25 01:16:07;;;;;;;2.42;2.33;;;23.90;58.50;;;;;;4992731;28;20501;-36
2021/06/25 01:18:33;;;;;;;2.20;2.10;;;23.90;58.60;;;;;;4991815;28;20034;-39
2021/06/25 01:20:59;;;;;;;2.22;2.13;;;23.80;58.60;;;;;;5006728;28;20033;-36
2021/06/25 01:23:26;;;;;;;2.35;2.25;;;23.90;58.70;;;;;;4992307;28;20517;-32
2021/06/25 01:25:52;;;;;;;2.10;2.00;;;23.90;58.70;;;;;;4995788;28;20030;-33
2021/06/25 01:28:17;;;;;;;2.40;2.30;;;23.80;58.70;;;;;;4992337;28;20113;-36
2021/06/25 01:30:44;;;;;;;2.30;2.20;;;23.80;58.70;;;;;;4990769;28;20033;-37
2021/06/25 01:33:12;;;;;;;2.60;2.50;;;23.80;58.70;;;;;;4993211;28;20019;-33
2021/06/25 01:35:38;;;;;;;2.10;2.00;;;23.80;58.70;;;;;;4991155;28;20031;-35
2021/06/25 01:38:04;;;;;;;2.55;2.45;;;23.80;58.70;;;;;;4994032;28;20018;-36
2021/06/25 01:40:29;;;;;;;2.00;2.00;;;23.80;58.80;;;;;;4993860;28;20440;-31
2021/06/25 01:42:55;;;;;;;2.08;1.98;;;23.80;58.80;;;;;;4991748;28;20370;-31
2021/06/25 01:45:22;;;;;;;2.15;2.05;;;23.80;58.80;;;;;;5006153;28;20054;-35
2021/06/25 01:47:48;;;;;;;2.72;2.53;;;23.80;58.90;;;;;;4991087;28;20034;-33
2021/06/25 01:50:16;;;;;;;2.03;1.92;;;23.70;58.80;;;;;;4992235;28;20046;-32
2021/06/25 01:52:56;;;;;;;2.10;2.00;;;23.80;58.90;;;;;;5010490;28;20552;-33
2021/06/25 01:55:22;;;;;;;2.17;2.08;;;23.70;58.90;;;;;;4990563;28;20022;-33
2021/06/25 01:57:47;;;;;;;2.08;1.98;;;23.70;58.90;;;;;;4990505;28;20114;-32
2021/06/25 02:00:13;;;;;;;2.10;2.00;;;23.70;58.80;;;;;;4990638;28;20511;-38
2021/06/25 02:02:39;;;;;;;2.45;2.25;;;23.70;58.90;;;;;;4991961;28;20084;-35
2021/06/25 02:05:05;;;;;;;2.10;2.00;;;23.70;58.90;;;;;;5008479;28;20513;-31
2021/06/25 02:07:31;;;;;;;2.00;1.90;;;23.70;58.90;;;;;;5006930;28;20030;-34
2021/06/25 02:09:57;;;;;;;2.10;2.00;;;23.70;58.90;;;;;;4989748;28;20029;-37
2021/06/25 02:12:26;;;;;;;2.40;2.30;;;23.70;58.90;;;;;;4990331;28;20030;-36
2021/06/25 02:14:52;;;;;;;2.15;2.05;;;23.70;58.90;;;;;;4990830;28;20487;-32
2021/06/25 02:17:18;;;;;;;2.25;2.15;;;23.70;59.00;;;;;;5006925;28;20430;-31
2021/06/25 02:19:44;;;;;;;2.08;1.98;;;23.70;58.90;;;;;;4992061;28;20093;-35
2021/06/25 02:22:10;;;;;;;2.70;2.60;;;23.60;59.10;;;;;;4991632;28;20026;-35
2021/06/25 02:24:35;;;;;;;2.33;2.13;;;23.70;59.00;;;;;;4990298;28;20036;-34
2021/06/25 02:27:01;;;;;;;2.35;2.25;;;23.70;58.90;;;;;;4989775;28;20029;-35
2021/06/25 02:29:26;;;;;;;2.10;2.00;;;23.70;59.00;;;;;;4991246;28;20436;-35
2021/06/25 02:31:52;;;;;;;2.30;2.20;;;23.70;59.10;;;;;;4994297;28;20023;-38
2021/06/25 02:34:18;;;;;;;2.30;2.20;;;23.70;59.00;;;;;;4963210;28;20057;-30
2021/06/25 02:36:44;;;;;;;2.03;1.92;;;23.60;59.10;;;;;;4986973;28;20038;-32
2021/06/25 02:39:09;;;;;;;2.50;2.20;;;23.70;59.10;;;;;;4990971;28;20034;-36
2021/06/25 02:41:35;;;;;;;2.17;2.08;;;23.60;59.00;;;;;;4991376;28;20022;-35
2021/06/25 02:44:01;;;;;;;2.03;1.83;;;23.70;59.00;;;;;;4993410;28;20425;-35
2021/06/25 02:46:27;;;;;;;2.38;2.28;;;23.70;59.00;;;;;;5006409;28;20033;-30
2021/06/25 02:48:52;;;;;;;2.20;2.10;;;23.60;59.10;;;;;;4989818;28;20038;-34
2021/06/25 02:51:18;;;;;;;2.25;2.15;;;23.60;59.00;;;;;;4988611;28;20069;-32
2021/06/25 02:53:43;;;;;;;2.25;2.15;;;23.60;59.00;;;;;;4989023;28;20557;-32
2021/06/25 02:56:09;;;;;;;2.17;2.08;;;23.60;59.10;;;;;;4991721;28;20022;-33
2021/06/25 02:58:34;;;;;;;2.10;2.00;;;23.60;59.00;;;;;;4991986;28;20018;-34
2021/06/25 03:01:00;;;;;;;2.17;2.08;;;23.60;59.10;;;;;;4991235;28;20038;-32
2021/06/25 03:03:26;;;;;;;2.38;2.08;;;23.60;59.10;;;;;;4988655;28;20105;-33
2021/06/25 03:05:52;;;;;;;2.30;2.20;;;23.60;59.10;;;;;;4991093;28;20438;-30
2021/06/25 03:08:18;;;;;;;2.20;2.10;;;23.60;59.10;;;;;;4991026;28;23561;-31
2021/06/25 03:10:46;;;;;;;2.00;1.90;;;23.60;59.10;;;;;;4992255;28;20433;-36
2021/06/25 03:13:12;;;;;;;2.30;2.20;;;23.60;59.10;;;;;;4988514;28;20038;-34
2021/06/25 03:15:38;;;;;;;2.17;2.08;;;23.60;59.80;;;;;;4988685;28;20030;-34
2021/06/25 03:18:03;;;;;;;2.08;1.98;;;23.60;59.10;;;;;;4990390;28;20512;-32
2021/06/25 03:20:29;;;;;;;2.10;2.00;;;23.60;59.20;;;;;;4988314;28;20023;-31
2021/06/25 03:22:54;;;;;;;1.92;1.83;;;23.60;59.20;;;;;;4993415;28;20485;-32
2021/06/25 03:25:20;;;;;;;2.17;2.08;;;23.60;59.20;;;;;;4988432;28;20053;-34
2021/06/25 03:27:46;;;;;;;2.00;1.90;;;23.60;59.30;;;;;;4974807;28;20022;-36
2021/06/25 03:30:12;;;;;;;1.95;1.85;;;23.60;59.30;;;;;;4988975;28;20041;-32
2021/06/25 03:32:37;;;;;;;2.15;1.70;;;23.60;59.20;;;;;;4988889;28;20089;-34
2021/06/25 03:35:04;;;;;;;1.70;1.60;;;23.60;59.20;;;;;;4991717;28;20050;-33
2021/06/25 03:37:30;;;;;;;2.30;2.20;;;23.60;59.30;;;;;;4991777;28;20038;-32
2021/06/25 03:39:55;;;;;;;2.10;2.00;;;23.60;59.30;;;;;;4989178;28;20026;-32
2021/06/25 03:42:21;;;;;;;1.60;1.60;;;23.60;59.90;;;;;;4990543;28;20027;-33
2021/06/25 03:44:46;;;;;;;2.17;2.08;;;23.50;59.30;;;;;;4988922;28;20043;-31
2021/06/25 03:47:12;;;;;;;2.10;2.00;;;23.60;59.30;;;;;;4991114;28;20030;-34
2021/06/25 03:49:38;;;;;;;2.10;2.00;;;23.50;59.20;;;;;;4990757;28;20022;-34
2021/06/25 03:52:04;;;;;;;2.00;1.90;;;23.50;59.30;;;;;;4988437;28;20486;-35
2021/06/25 03:54:29;;;;;;;2.00;1.90;;;23.50;59.30;;;;;;4989284;28;20093;-33
2021/06/25 03:56:55;;;;;;;1.92;1.83;;;23.50;59.30;;;;;;4989063;28;20410;-34
2021/06/25 03:59:20;;;;;;;2.25;2.15;;;23.50;59.30;;;;;;4989407;28;20022;-31
2021/06/25 04:01:46;;;;;;;1.90;1.80;;;23.50;59.40;;;;;;4991414;28;20050;-33
2021/06/25 04:04:12;;;;;;;2.03;1.92;;;23.60;59.10;;;;;;4957407;28;20054;-30
2021/06/25 04:06:38;;;;;;;1.83;1.73;;;23.60;59.20;;;;;;4988269;28;20404;-34
2021/06/25 04:09:04;;;;;;;2.08;1.98;;;23.60;59.50;;;;;;4987429;28;20061;-34
2021/06/25 04:11:29;;;;;;;2.13;2.03;;;23.50;59.50;;;;;;4987355;28;20027;-36
2021/06/25 04:13:55;;;;;;;1.80;1.80;;;23.50;59.60;;;;;;5007945;28;20049;-34
2021/06/25 04:16:21;;;;;;;2.10;2.00;;;23.60;59.60;;;;;;4988142;28;20448;-31
2021/06/25 04:18:46;;;;;;;2.10;2.00;;;23.50;59.60;;;;;;4989236;28;20448;-34
2021/06/25 04:21:12;;;;;;;1.70;1.60;;;23.60;59.80;;;;;;4988688;28;20034;-33
2021/06/25 04:23:37;;;;;;;2.03;1.92;;;23.50;59.80;;;;;;4988119;28;20035;-34
2021/06/25 04:26:03;;;;;;;1.70;1.60;;;23.50;59.80;;;;;;4990923;28;20559;-35
2021/06/25 04:28:29;;;;;;;1.75;1.65;;;23.50;59.80;;;;;;4989870;28;20064;-34
2021/06/25 04:30:55;;;;;;;1.98;1.88;;;23.50;59.90;;;;;;4988125;28;20022;-38
2021/06/25 04:33:20;;;;;;;2.10;2.00;;;23.50;59.90;;;;;;4988206;28;20026;-34
2021/06/25 04:35:47;;;;;;;2.15;2.05;;;23.50;59.90;;;;;;4989890;28;20109;-34
2021/06/25 04:38:13;;;;;;;2.08;1.98;;;23.50;60.00;;;;;;5004254;28;20514;-38
2021/06/25 04:40:40;;;;;;;1.85;1.77;;;23.50;60.00;;;;;;4989786;28;20081;-35
2021/06/25 04:43:10;;;;;;;2.10;2.00;;;23.40;59.90;;;;;;4989528;28;20114;-37
2021/06/25 04:45:36;;;;;;;1.90;1.80;;;23.50;60.10;;;;;;4989301;28;20504;-32
2021/06/25 04:48:05;;;;;;;1.90;1.80;;;23.50;60.10;;;;;;4990056;28;20027;-33
2021/06/25 04:50:31;;;;;;;2.03;1.92;;;23.50;60.10;;;;;;4987395;28;20034;-34
2021/06/25 04:52:57;;;;;;;2.15;1.70;;;23.50;60.10;;;;;;4991228;28;20053;-32
2021/06/25 04:55:23;;;;;;;1.90;1.80;;;23.50;60.10;;;;;;4986552;28;20440;-36
2021/06/25 04:57:52;;;;;;;2.00;1.90;;;23.50;60.20;;;;;;4986554;28;20050;-35
2021/06/25 05:00:19;;;;;;;1.80;1.70;;;23.50;60.10;;;;;;4986753;28;20489;-37
2021/06/25 05:02:45;;;;;;;1.92;1.83;;;23.40;60.10;;;;;;4989402;28;20331;-41
2021/06/25 05:05:11;;;;;;;1.80;1.70;;;23.40;60.30;;;;;;4986054;28;20073;-37
2021/06/25 05:07:37;;;;;;;2.05;1.95;;;23.50;60.20;;;;;;4973319;28;20027;-33
2021/06/25 05:10:03;;;;;;;1.88;1.77;;;23.50;60.30;;;;;;4988344;28;20507;-34
2021/06/25 05:12:29;;;;;;;2.05;1.95;;;23.50;60.40;;;;;;4987746;28;20026;-32
2021/06/25 05:14:54;;;;;;;4.30;2.00;;;23.40;60.30;;;;;;4988052;28;20037;-34
2021/06/25 05:17:20;;;;;;;2.00;1.90;;;23.50;60.40;;;;;;4987967;28;20042;-34
2021/06/25 05:19:45;;;;;;;1.83;1.77;;;23.40;60.40;;;;;;4990234;28;20049;-35
2021/06/25 05:22:11;;;;;;;1.90;1.90;;;23.40;60.40;;;;;;4988903;28;20030;-36
2021/06/25 05:24:37;;;;;;;1.90;1.80;;;23.40;60.60;;;;;;4986050;28;20066;-37
2021/06/25 05:27:02;;;;;;;1.58;1.58;;;23.40;60.40;;;;;;4989169;28;20029;-33
2021/06/25 05:29:28;;;;;;;2.00;1.90;;;23.40;60.50;;;;;;4988983;28;20027;-34
2021/06/25 05:31:54;;;;;;;1.90;1.80;;;23.40;60.50;;;;;;4991293;28;20035;-34
2021/06/25 05:34:19;;;;;;;2.03;1.92;;;23.40;60.40;;;;;;4987202;28;20052;-36
2021/06/25 05:36:45;;;;;;;1.98;1.90;;;23.40;60.50;;;;;;4987750;28;20057;-33
2021/06/25 05:39:11;;;;;;;1.90;1.80;;;23.40;60.50;;;;;;4969378;28;20034;-35
2021/06/25 05:41:36;;;;;;;1.88;1.77;;;23.40;60.50;;;;;;4989215;28;20027;-37
2021/06/25 05:44:02;;;;;;;2.00;1.90;;;23.40;60.50;;;;;;4990448;28;20045;-36
2021/06/25 05:46:28;;;;;;;1.90;1.80;;;23.40;60.50;;;;;;4990817;28;20030;-33
2021/06/25 05:48:53;;;;;;;1.88;1.77;;;23.40;60.50;;;;;;4989808;28;20401;-34
2021/06/25 05:51:19;;;;;;;2.10;2.00;;;23.50;61.40;;;;;;4989907;28;20069;-35
2021/06/25 05:53:45;;;;;;;1.90;1.80;;;23.40;60.70;;;;;;4992189;28;20018;-34
2021/06/25 05:56:10;;;;;;;2.00;1.90;;;23.40;60.70;;;;;;4993273;28;20031;-35
2021/06/25 05:58:37;;;;;;;2.10;2.00;;;23.40;60.50;;;;;;4994853;28;20050;-37
2021/06/25 06:01:03;;;;;;;2.05;1.95;;;23.40;60.50;;;;;;4992513;28;20086;-39
2021/06/25 06:03:29;;;;;;;2.00;1.90;;;23.40;60.60;;;;;;4970874;28;20091;-35
2021/06/25 06:05:54;;;;;;;1.70;1.70;;;23.40;60.70;;;;;;4977881;28;20113;-36
2021/06/25 06:08:20;;;;;;;1.88;1.77;;;23.30;60.90;;;;;;4992003;28;20030;-32
2021/06/25 06:10:45;;;;;;;1.80;1.80;;;23.40;60.90;;;;;;4993450;28;20026;-34
2021/06/25 06:13:11;;;;;;;1.92;1.83;;;23.40;60.80;;;;;;4991027;28;20030;-36
2021/06/25 06:15:36;;;;;;;2.22;1.92;;;23.30;60.90;;;;;;4990528;28;20037;-37
2021/06/25 06:18:03;;;;;;;2.35;2.25;;;23.40;60.80;;;;;;4989495;28;20405;-40
2021/06/25 06:20:29;;;;;;;1.70;1.70;;;23.40;60.80;;;;;;4992312;28;20031;-36
2021/06/25 06:36:05;;;;;;;2.20;1.90;;;23.40;61.00;;;;;;4990796;28;20575;-34
2021/06/25 06:38:31;;;;;;;2.25;2.15;;;23.40;60.90;;;;;;4990652;28;20101;-33
2021/06/25 06:40:56;;;;;;;2.00;1.90;;;23.40;61.00;;;;;;5009780;28;20065;-36
2021/06/25 06:43:22;;;;;;;2.22;2.13;;;23.40;61.00;;;;;;4991922;28;20030;-35
2021/06/25 06:45:48;;;;;;;1.90;1.80;;;23.40;61.10;;;;;;4989844;28;20093;-33
2021/06/25 06:48:13;;;;;;;2.20;2.10;;;23.40;61.10;;;;;;4990446;28;20027;-36
2021/06/25 06:50:39;;;;;;;2.08;1.98;;;23.40;61.10;;;;;;4989738;28;20054;-36
2021/06/25 06:53:04;;;;;;;2.10;2.00;;;23.30;61.10;;;;;;4992456;28;20031;-38
2021/06/25 06:55:30;;;;;;;2.15;2.05;;;23.40;61.20;;;;;;4992609;28;20073;-36
2021/06/25 06:57:56;;;;;;;1.98;1.88;;;23.30;61.20;;;;;;4990098;28;20037;-39
2021/06/25 07:00:22;;;;;;;2.10;2.00;;;23.40;61.20;;;;;;4990137;28;20446;-34
2021/06/25 07:02:47;;;;;;;44.00;34.28;;;23.40;60.80;;;;;;4990547;28;20053;-34
2021/06/25 07:05:14;;;;;;;30.15;26.58;;;23.40;61.00;;;;;;4991919;28;20066;-37
2021/06/25 07:07:40;;;;;;;12.32;11.13;;;23.50;60.80;;;;;;4991542;28;20031;-37
2021/06/25 07:10:06;;;;;;;15.40;13.80;;;23.60;60.10;;;;;;4990510;28;20034;-35
2021/06/25 07:12:32;;;;;;;12.00;10.50;;;23.60;60.50;;;;;;4972973;28;20397;-35
2021/06/25 07:14:58;;;;;;;10.43;9.63;;;23.60;60.20;;;;;;4991144;28;20035;-33
2021/06/25 07:17:23;;;;;;;12.35;11.25;;;23.50;60.50;;;;;;4990376;28;20030;-34
2021/06/25 07:19:50;;;;;;;11.15;10.13;;;23.70;60.40;;;;;;4993152;28;20485;-29
2021/06/25 07:22:15;;;;;;;13.05;11.85;;;23.70;60.40;;;;;;4990440;28;20515;-31
2021/06/25 07:24:41;;;;;;;7.97;7.28;;;23.60;60.80;;;;;;4988856;28;20131;-34
2021/06/25 07:27:07;;;;;;;13.43;10.73;;;23.50;61.00;;;;;;4990287;28;20031;-35
2021/06/25 07:29:32;;;;;;;11.07;10.07;;;23.40;61.60;;;;;;4987348;28;20031;-36
2021/06/25 07:31:58;;;;;;;11.30;10.20;;;23.50;60.90;;;;;;4992949;28;20023;-35
2021/06/25 07:34:24;;;;;;;7.93;7.32;;;23.60;60.40;;;;;;4989734;28;20373;-36
2021/06/25 07:36:49;;;;;;;8.20;7.50;;;23.40;60.80;;;;;;4988981;28;20048;-34
2021/06/25 07:39:15;;;;;;;9.43;8.52;;;23.40;61.10;;;;;;4989382;28;20031;-35
2021/06/25 07:41:41;;;;;;;7.72;7.18;;;23.20;62.00;;;;;;4990642;28;20029;-36
2021/06/25 07:44:06;;;;;;;8.93;8.23;;;23.20;61.60;;;;;;4990873;28;20042;-33
2021/06/25 07:46:32;;;;;;;7.57;6.97;;;23.10;62.40;;;;;;4990473;28;20037;-36
2021/06/25 07:48:57;;;;;;;7.20;6.63;;;23.00;62.50;;;;;;4988826;28;20026;-34
2021/06/25 07:51:23;;;;;;;8.60;7.90;;;23.00;62.50;;;;;;4988168;28;20043;-32
2021/06/25 07:53:49;;;;;;;8.45;7.65;;;23.00;62.70;;;;;;4989856;28;20026;-33
2021/06/25 07:56:14;;;;;;;8.45;7.75;;;23.00;63.20;;;;;;4990767;28;20524;-35
2021/06/25 07:58:40;;;;;;;7.45;6.80;;;22.90;62.70;;;;;;4990260;28;20058;-34
2021/06/25 08:01:06;;;;;;;8.40;7.10;;;22.90;62.60;;;;;;4987695;28;20485;-36
2021/06/25 08:03:32;;;;;;;10.35;6.90;;;23.00;62.60;;;;;;4987658;28;20034;-34
2021/06/25 08:05:58;;;;;;;7.10;6.50;;;23.00;62.90;;;;;;4990187;28;20045;-36
2021/06/25 08:08:23;;;;;;;7.20;6.55;;;23.10;62.60;;;;;;4988346;28;20026;-34
2021/06/25 08:10:49;;;;;;;7.75;7.05;;;23.00;62.50;;;;;;4991753;28;20034;-36
2021/06/25 08:13:14;;;;;;;7.40;6.85;;;23.10;62.80;;;;;;4988258;28;20080;-37
2021/06/25 08:15:40;;;;;;;6.15;5.75;;;23.30;62.10;;;;;;4989305;28;20481;-35
2021/06/25 08:18:05;;;;;;;6.70;6.20;;;23.30;62.10;;;;;;5002944;28;20048;-37
2021/06/25 08:20:31;;;;;;;6.97;6.15;;;23.40;62.00;;;;;;4987041;28;20037;-35
2021/06/25 08:22:57;;;;;;;7.30;6.70;;;23.30;62.50;;;;;;4992761;28;20024;-36
2021/06/25 08:25:26;;;;;;;7.30;6.80;;;23.30;62.10;;;;;;4988188;28;20500;-34
2021/06/25 08:27:52;;;;;;;6.63;6.22;;;23.40;61.70;;;;;;4988971;28;20109;-38
2021/06/25 08:30:24;;;;;;;6.57;6.07;;;23.40;61.90;;;;;;4989522;28;20142;-33
2021/06/25 08:32:50;;;;;;;6.28;5.78;;;23.60;61.90;;;;;;4988015;28;20057;-35
2021/06/25 08:35:15;;;;;;;6.40;6.00;;;23.70;61.50;;;;;;4988700;28;20110;-33
2021/06/25 08:37:41;;;;;;;6.18;5.65;;;23.60;61.30;;;;;;4991822;28;20029;-37
2021/06/25 08:40:08;;;;;;;6.60;6.00;;;23.50;61.10;;;;;;4988767;28;20069;-33
2021/06/25 08:42:38;;;;;;;5.90;5.50;;;23.40;62.00;;;;;;4989121;28;20035;-39
2021/06/25 08:45:05;;;;;;;7.32;5.75;;;23.30;62.80;;;;;;4988868;28;20038;-36
2021/06/25 08:47:31;;;;;;;6.43;5.88;;;23.40;63.40;;;;;;4987372;28;20109;-39
2021/06/25 08:49:56;;;;;;;5.53;5.18;;;23.50;62.40;;;;;;4990130;28;20117;-38
2021/06/25 08:52:22;;;;;;;7.63;5.55;;;23.50;62.30;;;;;;4967142;28;20093;-37
2021/06/25 08:54:47;;;;;;;5.45;4.93;;;23.70;61.90;;;;;;4986284;28;20537;-38
2021/06/25 08:57:13;;;;;;;6.88;5.07;;;23.70;62.30;;;;;;5004185;28;20019;-38
2021/06/25 08:59:38;;;;;;;5.93;5.50;;;23.70;62.70;;;;;;4987235;28;20023;-37
2021/06/25 09:02:04;;;;;;;5.53;5.13;;;23.60;63.20;;;;;;4990142;28;20031;-34
2021/06/25 09:04:34;;;;;;;5.65;4.95;;;23.50;63.10;;;;;;4990700;28;20092;-35
2021/06/25 09:07:00;;;;;;;13.82;5.15;;;23.40;63.50;;;;;;4987156;28;20424;-37
2021/06/25 09:09:42;;;;;;;5.03;4.70;;;23.40;64.00;;;;;;4988123;28;20018;-39
2021/06/25 09:12:12;;;;;;;4.65;4.25;;;23.40;63.80;;;;;;4987515;28;20037;-36
2021/06/25 09:15:00;;;;;;;4.25;3.95;;;23.40;64.20;;;;;;4987718;28;20030;-33
2021/06/25 09:17:26;;;;;;;5.30;4.53;;;23.30;64.20;;;;;;4988767;28;20498;-38
2021/06/25 09:19:51;;;;;;;5.07;4.55;;;23.30;64.10;;;;;;4991623;28;20097;-37
2021/06/25 09:22:17;;;;;;;4.25;3.95;;;23.30;64.00;;;;;;5003506;28;20037;-38
2021/06/25 09:24:43;;;;;;;5.97;4.30;;;23.30;63.90;;;;;;4990575;28;20120;-39
2021/06/25 09:27:09;;;;;;;4.40;4.00;;;23.30;63.90;;;;;;4990810;28;20065;-39
2021/06/25 09:29:37;;;;;;;4.28;3.55;;;23.30;63.80;;;;;;4992069;28;20055;-36
2021/06/25 09:32:07;;;;;;;5.15;4.00;;;23.30;63.80;;;;;;4993501;28;20543;-38
2021/06/25 09:34:44;;;;;;;4.40;4.00;;;23.20;63.70;;;;;;4992860;28;20031;-36
2021/06/25 09:37:15;;;;;;;4.30;3.90;;;23.30;63.50;;;;;;4990865;28;20117;-39
2021/06/25 09:39:42;;;;;;;8.25;4.13;;;23.20;63.40;;;;;;4990753;28;20109;-37
2021/06/25 09:42:17;;;;;;;5.07;3.70;;;23.20;63.30;;;;;;4990751;28;20445;-37
2021/06/25 09:45:04;;;;;;;4.25;3.95;;;23.20;63.40;;;;;;4991631;28;20050;-40
2021/06/25 09:47:35;;;;;;;4.03;3.17;;;23.20;63.40;;;;;;4991640;28;20022;-37
2021/06/25 09:50:31;;;;;;;5.65;3.50;;;23.20;63.20;;;;;;4991165;28;20126;-38
2021/06/25 09:52:59;;;;;;;3.88;3.50;;;23.30;63.30;;;;;;4985347;28;20081;-38
2021/06/25 09:55:28;;;;;;;3.63;3.33;;;23.20;63.20;;;;;;4988978;28;20046;-38
2021/06/25 09:58:25;;;;;;;3.65;3.42;;;23.30;63.20;;;;;;5004634;28;20085;-35
2021/06/25 10:03:36;;;;;;;3.83;3.38;;;23.30;62.90;;;;;;4990458;28;20555;-40
2021/06/25 10:06:08;;;;;;;3.20;3.00;;;23.20;62.70;;;;;;4990979;28;20065;-35
2021/06/25 10:08:34;;;;;;;3.40;3.20;;;23.30;62.90;;;;;;4975573;28;20030;-40
2021/06/25 10:11:02;;;;;;;3.53;3.22;;;23.30;62.70;;;;;;4994165;28;20030;-39
2021/06/25 10:13:28;;;;;;;3.55;3.25;;;23.30;62.70;;;;;;4992050;28;20030;-38
2021/06/25 10:15:54;;;;;;;4.18;2.75;;;23.30;62.70;;;;;;4991557;28;20559;-38
2021/06/25 10:18:19;;;;;;;3.58;3.28;;;23.30;62.50;;;;;;4987560;28;20109;-38
2021/06/25 10:20:45;;;;;;;3.58;3.28;;;23.30;62.60;;;;;;4992152;28;20026;-39
2021/06/25 10:23:10;;;;;;;3.47;3.28;;;23.30;62.50;;;;;;4991437;28;20034;-41
2021/06/25 10:25:36;;;;;;;3.00;2.80;;;23.30;62.10;;;;;;4992383;28;20039;-37
2021/06/25 10:28:02;;;;;;;3.20;3.00;;;23.30;62.50;;;;;;4991672;28;20492;-38
2021/06/25 10:30:28;;;;;;;3.50;3.25;;;23.30;62.10;;;;;;4988973;28;20484;-40
2021/06/25 10:32:55;;;;;;;3.35;3.15;;;23.30;62.60;;;;;;4991262;28;20089;-39
2021/06/25 10:35:21;;;;;;;3.63;3.42;;;23.30;62.10;;;;;;5005590;28;20712;-36
2021/06/25 10:37:46;;;;;;;3.10;2.85;;;23.30;61.90;;;;;;5008502;28;20033;-35
2021/06/25 10:40:26;;;;;;;3.08;2.88;;;23.30;61.90;;;;;;4973735;28;20099;-38
2021/06/25 10:42:53;;;;;;;3.03;2.83;;;23.40;61.90;;;;;;4990355;28;20053;-38
2021/06/25 10:45:38;;;;;;;3.17;2.97;;;23.40;62.20;;;;;;4990652;28;20048;-40
2021/06/25 10:48:04;;;;;;;3.22;3.03;;;23.40;61.80;;;;;;4974908;28;20041;-40
2021/06/25 10:50:30;;;;;;;2.95;2.67;;;23.40;62.20;;;;;;4987836;28;20050;-38
2021/06/25 10:53:07;;;;;;;2.78;2.58;;;23.40;61.90;;;;;;4992667;28;20048;-39
2021/06/25 10:55:33;;;;;;;2.80;2.60;;;23.40;62.10;;;;;;4991458;28;20551;-35
2021/06/25 10:57:59;;;;;;;3.15;3.05;;;23.40;62.00;;;;;;4990313;28;20034;-37
2021/06/25 11:00:25;;;;;;;2.92;2.72;;;23.40;61.70;;;;;;4990271;28;20054;-39
2021/06/25 11:02:50;;;;;;;2.83;2.63;;;23.40;61.50;;;;;;4989806;28;20116;-42
2021/06/25 11:05:25;;;;;;;2.90;2.70;;;23.40;61.30;;;;;;4974231;28;20405;-40
2021/06/25 11:08:00;;;;;;;2.95;2.85;;;23.40;61.50;;;;;;4991827;28;20390;-39
2021/06/25 11:10:32;;;;;;;2.80;2.70;;;23.40;61.40;;;;;;4990895;28;20034;-41
2021/06/25 11:13:12;;;;;;;2.95;2.75;;;23.50;61.80;;;;;;4990276;28;20031;-38
2021/06/25 11:15:39;;;;;;;2.85;2.65;;;23.50;61.40;;;;;;4989385;28;20030;-35
2021/06/25 11:18:15;;;;;;;3.15;2.92;;;23.50;61.00;;;;;;4972283;28;20116;-38
2021/06/25 11:21:00;;;;;;;3.20;3.00;;;23.60;60.90;;;;;;4988453;28;20113;-36
2021/06/25 11:23:42;;;;;;;2.97;2.78;;;23.70;60.60;;;;;;4988411;28;20093;-37
2021/06/25 11:26:14;;;;;;;2.60;2.50;;;23.90;60.20;;;;;;4991213;28;20113;-40
2021/06/25 11:28:46;;;;;;;4.18;2.28;;;24.00;59.90;;;;;;4991593;28;20153;-41
2021/06/25 11:31:18;;;;;;;2.65;2.53;;;23.80;60.40;;;;;;4969948;28;20026;-40
2021/06/25 11:33:50;;;;;;;3.22;3.03;;;23.80;61.50;;;;;;4990647;28;20493;-39
2021/06/25 11:36:47;;;;;;;2.97;2.47;;;23.70;61.80;;;;;;4984427;28;20038;-44
2021/06/25 11:39:20;;;;;;;2.45;2.33;;;23.80;61.10;;;;;;4979109;28;20026;-48
2021/06/25 11:41:56;;;;;;;3.03;2.75;;;23.90;60.30;;;;;;4989263;28;20105;-49
2021/06/25 11:44:27;;;;;;;4.40;2.78;;;23.80;61.40;;;;;;4999258;28;20074;-49
2021/06/25 11:47:17;;;;;;;2.67;2.47;;;23.70;61.90;;;;;;4986386;28;20101;-42
2021/06/25 11:49:58;;;;;;;2.78;2.63;;;23.60;62.00;;;;;;4990014;28;20030;-40
2021/06/25 11:52:24;;;;;;;2.53;2.42;;;23.60;61.90;;;;;;4987739;28;20034;-42
2021/06/25 11:55:01;;;;;;;5.00;2.42;;;23.60;62.30;;;;;;4984699;28;20081;-41
2021/06/25 11:57:28;;;;;;;2.85;2.65;;;23.60;63.90;;;;;;4964675;28;20034;-42
2021/06/25 11:59:58;;;;;;;3.50;2.63;;;23.60;63.20;;;;;;4985407;28;20037;-42
2021/06/25 12:02:23;;;;;;;2.88;2.67;;;23.50;63.10;;;;;;4988888;28;20113;-41
2021/06/25 12:04:49;;;;;;;3.50;2.20;;;23.50;63.10;;;;;;4991161;28;20157;-41
2021/06/25 12:07:15;;;;;;;3.58;3.28;;;23.50;62.90;;;;;;4987015;28;20461;-43
2021/06/25 12:09:49;;;;;;;6.63;2.70;;;23.50;63.00;;;;;;4964635;28;20105;-43
2021/06/25 12:12:20;;;;;;;3.13;2.85;;;23.50;63.00;;;;;;4985794;28;20057;-42
2021/06/25 12:14:51;;;;;;;2.22;2.13;;;23.50;63.10;;;;;;4986601;28;20069;-44
2021/06/25 12:17:17;;;;;;;5.20;2.40;;;23.60;63.50;;;;;;4984156;28;20030;-42
2021/06/25 12:20:26;;;;;;;4.65;2.70;;;23.50;63.60;;;;;;4986805;28;20501;-43
2021/06/25 12:23:01;;;;;;;2.38;2.17;;;23.80;62.20;;;;;;4955928;28;20030;-43
2021/06/25 12:25:44;;;;;;;2.58;2.38;;;23.70;62.60;;;;;;4632734;28;9999718;-42
2021/06/25 12:28:21;;;;;;;4.22;2.30;;;23.60;63.00;;;;;;4983738;28;20049;-44
2021/06/25 12:30:54;;;;;;;3.83;2.45;;;23.60;64.40;;;;;;4967300;28;20557;-43
2021/06/25 12:33:21;;;;;;;2.78;2.35;;;23.60;63.50;;;;;;4966019;28;20042;-42
2021/06/25 12:35:50;;;;;;;2.50;2.38;;;23.60;63.30;;;;;;4984520;28;20030;-43
2021/06/25 12:38:26;;;;;;;3.10;2.03;;;23.60;63.50;;;;;;4979083;28;20558;-42
2021/06/25 12:40:56;;;;;;;2.90;2.05;;;23.60;63.40;;;;;;4997411;28;20101;-42
2021/06/25 12:43:39;;;;;;;2.78;2.58;;;23.70;63.30;;;;;;4981178;28;20026;-42
2021/06/25 12:46:17;;;;;;;4.75;2.03;;;23.70;63.10;;;;;;4981623;28;20505;-42
2021/06/25 12:49:00;;;;;;;3.97;2.55;;;23.90;62.10;;;;;;4998134;28;20045;-44
2021/06/25 12:51:31;;;;;;;3.30;2.03;;;23.80;62.70;;;;;;4977288;28;20081;-42
2021/06/25 12:53:59;;;;;;;3.58;2.50;;;23.80;62.80;;;;;;4983294;28;20317;-42
2021/06/25 12:56:35;;;;;;;3.15;2.30;;;23.80;63.00;;;;;;4970576;28;20026;-43
2021/06/25 12:59:19;;;;;;;3.65;2.30;;;23.80;62.80;;;;;;4976692;28;20073;-43
2021/06/25 13:01:50;;;;;;;3.50;2.30;;;23.70;63.20;;;;;;4988771;28;20034;-42
2021/06/25 13:04:19;;;;;;;2.33;2.13;;;23.70;63.50;;;;;;4987781;28;20484;-40